TAX1612 LPPR-LPFR
Flight info
| Callsign | TAX1612 |
|---|---|
| Flight time | 0h 49m |
| Altitude | 33000 |
| Route | MANIK DCT INBOM DCT ALAGU |
| Aircraft | A321/M-SDE3FGHIRWY/LB1 |
Departure
| Time | 2026-05-07 17:19 |
|---|---|
| Airport | Francisco de Sá Carneiro Airport (LPPR) |
Arrival
| Time | 2026-05-07 18:08 |
|---|---|
| Airport | Faro - Gago Coutinho International Airport (LPFR) |
| Time | Latitude | Longitude | Altitude | Speed | Heading |
|---|---|---|---|---|---|
| 2026-05-07 17:00 | 41.23732 | -8.67271 | 251 ft | 0 kts | 69° |
| 2026-05-07 17:13 | 41.23723 | -8.67301 | 250 ft | 4 kts | 69° |
| 2026-05-07 17:13 | 41.23715 | -8.67328 | 249 ft | 4 kts | 73° |
| 2026-05-07 17:13 | 41.23712 | -8.67362 | 247 ft | 4 kts | 99° |
| 2026-05-07 17:13 | 41.23721 | -8.67394 | 246 ft | 4 kts | 124° |
| 2026-05-07 17:14 | 41.23727 | -8.67405 | 246 ft | 1 kts | 127° |
| 2026-05-07 17:14 | 41.23727 | -8.67406 | 245 ft | 0 kts | 127° |
| 2026-05-07 17:15 | 41.23720 | -8.67392 | 246 ft | 4 kts | 127° |
| 2026-05-07 17:16 | 41.23684 | -8.67348 | 247 ft | 9 kts | 156° |
| 2026-05-07 17:16 | 41.23609 | -8.67326 | 247 ft | 12 kts | 179° |
| 2026-05-07 17:16 | 41.23546 | -8.67381 | 245 ft | 12 kts | 207° |
| 2026-05-07 17:16 | 41.23460 | -8.67384 | 245 ft | 14 kts | 166° |
| 2026-05-07 17:17 | 41.23360 | -8.67372 | 243 ft | 16 kts | 215° |
| 2026-05-07 17:17 | 41.23322 | -8.67511 | 241 ft | 17 kts | 259° |
| 2026-05-07 17:17 | 41.23312 | -8.67574 | 241 ft | 0 kts | 257° |
| 2026-05-07 17:17 | 41.23312 | -8.67575 | 241 ft | 1 kts | 257° |
| 2026-05-07 17:18 | 41.23307 | -8.67605 | 241 ft | 6 kts | 257° |
| 2026-05-07 17:18 | 41.23295 | -8.67677 | 242 ft | 11 kts | 257° |
| 2026-05-07 17:18 | 41.23329 | -8.67734 | 243 ft | 6 kts | 352° |
| 2026-05-07 17:18 | 41.23470 | -8.67769 | 241 ft | 53 kts | 348° |
| 2026-05-07 17:19 | 41.24077 | -8.67930 | 221 ft | 122 kts | 347° |
| 2026-05-07 17:19 | 41.25100 | -8.68203 | 243 ft | 171 kts | 347° |
| 2026-05-07 17:19 | 41.26258 | -8.68497 | 967 ft | 171 kts | 346° |
| 2026-05-07 17:19 | 41.27440 | -8.68832 | 1645 ft | 178 kts | 344° |
| 2026-05-07 17:20 | 41.28691 | -8.69162 | 2001 ft | 189 kts | 343° |
| 2026-05-07 17:20 | 41.30039 | -8.69421 | 2328 ft | 206 kts | 359° |
| 2026-05-07 17:20 | 41.31412 | -8.68722 | 2612 ft | 224 kts | 37° |
| 2026-05-07 17:20 | 41.32288 | -8.66941 | 2895 ft | 243 kts | 76° |
| 2026-05-07 17:21 | 41.32232 | -8.64681 | 3298 ft | 254 kts | 112° |
| 2026-05-07 17:21 | 41.31238 | -8.62790 | 3705 ft | 258 kts | 146° |
| 2026-05-07 17:21 | 41.29600 | -8.61895 | 4239 ft | 257 kts | 174° |
| 2026-05-07 17:21 | 41.27823 | -8.61631 | 4986 ft | 257 kts | 176° |
| 2026-05-07 17:22 | 41.26051 | -8.61312 | 5750 ft | 257 kts | 173° |
| 2026-05-07 17:22 | 41.24287 | -8.60897 | 6509 ft | 257 kts | 171° |
| 2026-05-07 17:22 | 41.22527 | -8.60412 | 7172 ft | 260 kts | 169° |
| 2026-05-07 17:22 | 41.20755 | -8.59883 | 7825 ft | 262 kts | 168° |
| 2026-05-07 17:23 | 41.18978 | -8.59331 | 8465 ft | 265 kts | 168° |
| 2026-05-07 17:23 | 41.17173 | -8.58754 | 9095 ft | 268 kts | 167° |
| 2026-05-07 17:23 | 41.15375 | -8.58171 | 9723 ft | 270 kts | 167° |
| 2026-05-07 17:23 | 41.13538 | -8.57575 | 10173 ft | 279 kts | 167° |
| 2026-05-07 17:24 | 41.11599 | -8.56946 | 10425 ft | 296 kts | 167° |
| 2026-05-07 17:24 | 41.09527 | -8.56272 | 10690 ft | 318 kts | 167° |
| 2026-05-07 17:24 | 41.07318 | -8.55548 | 10974 ft | 334 kts | 167° |
| 2026-05-07 17:24 | 41.05039 | -8.54801 | 11361 ft | 341 kts | 167° |
| 2026-05-07 17:25 | 41.02724 | -8.54036 | 11869 ft | 344 kts | 167° |
| 2026-05-07 17:25 | 41.00384 | -8.53266 | 12399 ft | 347 kts | 167° |
| 2026-05-07 17:25 | 40.98034 | -8.52495 | 12928 ft | 350 kts | 167° |
| 2026-05-07 17:25 | 40.95652 | -8.51719 | 13562 ft | 356 kts | 167° |
| 2026-05-07 17:26 | 40.93269 | -8.50939 | 14136 ft | 358 kts | 167° |
| 2026-05-07 17:26 | 40.90850 | -8.50144 | 14619 ft | 360 kts | 167° |
| 2026-05-07 17:26 | 40.88404 | -8.49334 | 15072 ft | 364 kts | 167° |
| 2026-05-07 17:26 | 40.85938 | -8.48521 | 15554 ft | 366 kts | 167° |
| 2026-05-07 17:27 | 40.83455 | -8.47707 | 16018 ft | 369 kts | 167° |
| 2026-05-07 17:27 | 40.80954 | -8.46887 | 16509 ft | 370 kts | 167° |
| 2026-05-07 17:27 | 40.78464 | -8.46074 | 17159 ft | 367 kts | 167° |
| 2026-05-07 17:27 | 40.75973 | -8.45263 | 17616 ft | 370 kts | 167° |
| 2026-05-07 17:28 | 40.73492 | -8.44453 | 18055 ft | 374 kts | 167° |
| 2026-05-07 17:28 | 40.70959 | -8.43629 | 18459 ft | 376 kts | 167° |
| 2026-05-07 17:28 | 40.68402 | -8.42797 | 18835 ft | 379 kts | 167° |
| 2026-05-07 17:28 | 40.65836 | -8.41964 | 19237 ft | 382 kts | 168° |
| 2026-05-07 17:29 | 40.63248 | -8.41124 | 19618 ft | 384 kts | 168° |
| 2026-05-07 17:29 | 40.60642 | -8.40278 | 19973 ft | 388 kts | 168° |
| 2026-05-07 17:29 | 40.58013 | -8.39423 | 20319 ft | 391 kts | 168° |
| 2026-05-07 17:29 | 40.55376 | -8.38567 | 20855 ft | 388 kts | 168° |
| 2026-05-07 17:30 | 40.52785 | -8.37723 | 21528 ft | 382 kts | 168° |
| 2026-05-07 17:30 | 40.50208 | -8.36889 | 21989 ft | 382 kts | 168° |
| 2026-05-07 17:30 | 40.47621 | -8.36054 | 22373 ft | 384 kts | 168° |
| 2026-05-07 17:30 | 40.45016 | -8.35211 | 22775 ft | 386 kts | 168° |
| 2026-05-07 17:31 | 40.42409 | -8.34368 | 23193 ft | 387 kts | 169° |
| 2026-05-07 17:31 | 40.39784 | -8.33523 | 23504 ft | 390 kts | 169° |
| 2026-05-07 17:31 | 40.37168 | -8.32676 | 23765 ft | 394 kts | 169° |
| 2026-05-07 17:31 | 40.34501 | -8.31815 | 24056 ft | 396 kts | 169° |
| 2026-05-07 17:32 | 40.31826 | -8.30954 | 24354 ft | 398 kts | 169° |
| 2026-05-07 17:32 | 40.29130 | -8.30090 | 24665 ft | 399 kts | 169° |
| 2026-05-07 17:32 | 40.26425 | -8.29227 | 24953 ft | 401 kts | 170° |
| 2026-05-07 17:32 | 40.24630 | -8.28650 | 25144 ft | 402 kts | 170° |
| 2026-05-07 17:33 | 40.20986 | -8.27475 | 25540 ft | 404 kts | 170° |
| 2026-05-07 17:33 | 40.18250 | -8.26595 | 25823 ft | 406 kts | 170° |
| 2026-05-07 17:33 | 40.15503 | -8.25713 | 26094 ft | 407 kts | 170° |
| 2026-05-07 17:33 | 40.12749 | -8.24831 | 26386 ft | 408 kts | 170° |
| 2026-05-07 17:34 | 40.09988 | -8.23945 | 26653 ft | 410 kts | 171° |
| 2026-05-07 17:34 | 40.07209 | -8.23059 | 26919 ft | 411 kts | 171° |
| 2026-05-07 17:34 | 40.04429 | -8.22175 | 27153 ft | 413 kts | 171° |
| 2026-05-07 17:34 | 40.01632 | -8.21284 | 27422 ft | 414 kts | 171° |
| 2026-05-07 17:35 | 39.98818 | -8.20388 | 27672 ft | 416 kts | 171° |
| 2026-05-07 17:35 | 39.96006 | -8.19490 | 27894 ft | 418 kts | 171° |
| 2026-05-07 17:35 | 39.93217 | -8.18601 | 28128 ft | 419 kts | 171° |
| 2026-05-07 17:35 | 39.90385 | -8.17700 | 28404 ft | 419 kts | 171° |
| 2026-05-07 17:36 | 39.87555 | -8.16802 | 28760 ft | 418 kts | 171° |
| 2026-05-07 17:36 | 39.84733 | -8.15907 | 29089 ft | 417 kts | 172° |
| 2026-05-07 17:36 | 39.81920 | -8.15013 | 29398 ft | 416 kts | 172° |
| 2026-05-07 17:36 | 39.79099 | -8.14118 | 29693 ft | 416 kts | 172° |
| 2026-05-07 17:37 | 39.76290 | -8.13228 | 29972 ft | 416 kts | 172° |
| 2026-05-07 17:37 | 39.73483 | -8.12340 | 30194 ft | 415 kts | 172° |
| 2026-05-07 17:37 | 39.70675 | -8.11451 | 30403 ft | 415 kts | 172° |
| 2026-05-07 17:37 | 39.67866 | -8.10564 | 30606 ft | 416 kts | 173° |
| 2026-05-07 17:38 | 39.65098 | -8.09690 | 30820 ft | 415 kts | 173° |
| 2026-05-07 17:38 | 39.62295 | -8.08804 | 31049 ft | 415 kts | 173° |
| 2026-05-07 17:38 | 39.59493 | -8.07923 | 31270 ft | 415 kts | 173° |
| 2026-05-07 17:38 | 39.56684 | -8.07042 | 31424 ft | 416 kts | 173° |
| 2026-05-07 17:39 | 39.53864 | -8.06156 | 31564 ft | 418 kts | 173° |
| 2026-05-07 17:39 | 39.51031 | -8.05267 | 31679 ft | 420 kts | 173° |
| 2026-05-07 17:39 | 39.48181 | -8.04436 | 31795 ft | 418 kts | 178° |
| 2026-05-07 17:39 | 39.45304 | -8.03942 | 31928 ft | 417 kts | 180° |
| 2026-05-07 17:40 | 39.42419 | -8.03541 | 32056 ft | 418 kts | 181° |
| 2026-05-07 17:40 | 39.39518 | -8.03137 | 32190 ft | 420 kts | 180° |
| 2026-05-07 17:40 | 39.36607 | -8.02716 | 32319 ft | 422 kts | 180° |
| 2026-05-07 17:40 | 39.33686 | -8.02285 | 32449 ft | 424 kts | 180° |
| 2026-05-07 17:41 | 39.30788 | -8.01848 | 32578 ft | 425 kts | 180° |
| 2026-05-07 17:41 | 39.27806 | -8.01394 | 32699 ft | 426 kts | 180° |
| 2026-05-07 17:41 | 39.24901 | -8.00955 | 32833 ft | 427 kts | 180° |
| 2026-05-07 17:41 | 39.21935 | -8.00506 | 32903 ft | 431 kts | 180° |
| 2026-05-07 17:42 | 39.15948 | -7.99595 | 32879 ft | 434 kts | 180° |
| 2026-05-07 17:42 | 39.09946 | -7.98685 | 32868 ft | 434 kts | 180° |
| 2026-05-07 17:43 | 39.03948 | -7.97780 | 32855 ft | 433 kts | 180° |
| 2026-05-07 17:43 | 38.97966 | -7.96880 | 32863 ft | 433 kts | 180° |
| 2026-05-07 17:44 | 38.92015 | -7.95984 | 32868 ft | 433 kts | 180° |
| 2026-05-07 17:44 | 38.86031 | -7.95088 | 32869 ft | 433 kts | 180° |
| 2026-05-07 17:45 | 38.80067 | -7.94197 | 32862 ft | 429 kts | 181° |
| 2026-05-07 17:45 | 38.74127 | -7.93313 | 32863 ft | 430 kts | 181° |
| 2026-05-07 17:46 | 38.68225 | -7.92433 | 32865 ft | 430 kts | 180° |
| 2026-05-07 17:46 | 38.62282 | -7.91546 | 32852 ft | 430 kts | 180° |
| 2026-05-07 17:47 | 38.56370 | -7.90669 | 32462 ft | 426 kts | 180° |
| 2026-05-07 17:47 | 38.53422 | -7.90232 | 32194 ft | 427 kts | 180° |
| 2026-05-07 17:47 | 38.50470 | -7.89793 | 31807 ft | 429 kts | 180° |
| 2026-05-07 17:48 | 38.47475 | -7.89352 | 30855 ft | 437 kts | 179° |
| 2026-05-07 17:48 | 38.44448 | -7.88906 | 30145 ft | 438 kts | 179° |
| 2026-05-07 17:48 | 38.41429 | -7.88458 | 29534 ft | 435 kts | 178° |
| 2026-05-07 17:48 | 38.38440 | -7.88017 | 28945 ft | 431 kts | 178° |
| 2026-05-07 17:49 | 38.35478 | -7.87577 | 28406 ft | 426 kts | 178° |
| 2026-05-07 17:49 | 38.32597 | -7.87151 | 27902 ft | 421 kts | 178° |
| 2026-05-07 17:49 | 38.29704 | -7.86729 | 27376 ft | 416 kts | 178° |
| 2026-05-07 17:49 | 38.26809 | -7.86305 | 26852 ft | 427 kts | 178° |
| 2026-05-07 17:50 | 38.23796 | -7.85864 | 26297 ft | 442 kts | 178° |
| 2026-05-07 17:50 | 38.20734 | -7.85414 | 25484 ft | 445 kts | 178° |
| 2026-05-07 17:50 | 38.17659 | -7.84959 | 24702 ft | 445 kts | 177° |
| 2026-05-07 17:50 | 38.14585 | -7.84504 | 24060 ft | 442 kts | 177° |
| 2026-05-07 17:51 | 38.11547 | -7.84055 | 23461 ft | 437 kts | 177° |
| 2026-05-07 17:51 | 38.08540 | -7.83616 | 22776 ft | 433 kts | 177° |
| 2026-05-07 17:51 | 38.05605 | -7.83187 | 22121 ft | 428 kts | 177° |
| 2026-05-07 17:51 | 38.02659 | -7.82758 | 21472 ft | 424 kts | 177° |
| 2026-05-07 17:52 | 37.99748 | -7.82328 | 20838 ft | 419 kts | 176° |
| 2026-05-07 17:52 | 37.96862 | -7.81906 | 20207 ft | 415 kts | 176° |
| 2026-05-07 17:52 | 37.94022 | -7.81489 | 19832 ft | 405 kts | 176° |
| 2026-05-07 17:52 | 37.91267 | -7.81084 | 19589 ft | 392 kts | 176° |
| 2026-05-07 17:53 | 37.88611 | -7.80698 | 19404 ft | 378 kts | 176° |
| 2026-05-07 17:53 | 37.86047 | -7.80323 | 19234 ft | 364 kts | 176° |
| 2026-05-07 17:53 | 37.83569 | -7.79962 | 18917 ft | 355 kts | 177° |
| 2026-05-07 17:53 | 37.81130 | -7.79611 | 18467 ft | 351 kts | 176° |
| 2026-05-07 17:54 | 37.78746 | -7.79268 | 17964 ft | 348 kts | 176° |
| 2026-05-07 17:54 | 37.76351 | -7.78925 | 17411 ft | 345 kts | 176° |
| 2026-05-07 17:54 | 37.73973 | -7.78583 | 16869 ft | 343 kts | 176° |
| 2026-05-07 17:54 | 37.71607 | -7.78243 | 16344 ft | 340 kts | 176° |
| 2026-05-07 17:55 | 37.69261 | -7.77904 | 15824 ft | 338 kts | 176° |
| 2026-05-07 17:55 | 37.66933 | -7.77568 | 15331 ft | 336 kts | 175° |
| 2026-05-07 17:55 | 37.64617 | -7.77233 | 14845 ft | 334 kts | 175° |
| 2026-05-07 17:55 | 37.62318 | -7.76899 | 14389 ft | 331 kts | 175° |
| 2026-05-07 17:56 | 37.60032 | -7.76569 | 13902 ft | 330 kts | 175° |
| 2026-05-07 17:56 | 37.57757 | -7.76241 | 13432 ft | 328 kts | 175° |
| 2026-05-07 17:56 | 37.55494 | -7.75915 | 13004 ft | 326 kts | 175° |
| 2026-05-07 17:56 | 37.53277 | -7.75595 | 12633 ft | 323 kts | 175° |
| 2026-05-07 17:57 | 37.51054 | -7.75273 | 12249 ft | 321 kts | 175° |
| 2026-05-07 17:57 | 37.49562 | -7.75057 | 12011 ft | 319 kts | 175° |
| 2026-05-07 17:57 | 37.46656 | -7.74639 | 11390 ft | 315 kts | 175° |
| 2026-05-07 17:57 | 37.44497 | -7.74327 | 11081 ft | 308 kts | 175° |
| 2026-05-07 17:58 | 37.42410 | -7.74026 | 10909 ft | 296 kts | 175° |
| 2026-05-07 17:58 | 37.40401 | -7.73737 | 10750 ft | 284 kts | 175° |
| 2026-05-07 17:58 | 37.38464 | -7.73457 | 10457 ft | 278 kts | 175° |
| 2026-05-07 17:58 | 37.36547 | -7.73179 | 10179 ft | 278 kts | 175° |
| 2026-05-07 17:59 | 37.34645 | -7.72906 | 9918 ft | 273 kts | 175° |
| 2026-05-07 17:59 | 37.32776 | -7.72639 | 9600 ft | 275 kts | 175° |
| 2026-05-07 17:59 | 37.30882 | -7.72367 | 9180 ft | 273 kts | 175° |
| 2026-05-07 17:59 | 37.29001 | -7.72097 | 8778 ft | 271 kts | 175° |
| 2026-05-07 18:00 | 37.27132 | -7.71830 | 8357 ft | 269 kts | 174° |
| 2026-05-07 18:00 | 37.25270 | -7.71564 | 7947 ft | 268 kts | 174° |
| 2026-05-07 18:00 | 37.23422 | -7.71300 | 7550 ft | 267 kts | 173° |
| 2026-05-07 18:00 | 37.21580 | -7.71037 | 7145 ft | 267 kts | 172° |
| 2026-05-07 18:01 | 37.19732 | -7.70772 | 6710 ft | 268 kts | 172° |
| 2026-05-07 18:01 | 37.17863 | -7.70504 | 6388 ft | 271 kts | 171° |
| 2026-05-07 18:01 | 37.15993 | -7.70236 | 6180 ft | 273 kts | 171° |
| 2026-05-07 18:01 | 37.14123 | -7.69970 | 5951 ft | 268 kts | 171° |
| 2026-05-07 18:02 | 37.11055 | -7.69532 | 5253 ft | 267 kts | 173° |
| 2026-05-07 18:02 | 37.08608 | -7.69238 | 4707 ft | 267 kts | 182° |
| 2026-05-07 18:02 | 37.06820 | -7.69770 | 4267 ft | 265 kts | 207° |
| 2026-05-07 18:03 | 37.05272 | -7.71010 | 3894 ft | 263 kts | 218° |
| 2026-05-07 18:03 | 37.03825 | -7.72346 | 3697 ft | 254 kts | 219° |
| 2026-05-07 18:03 | 37.02897 | -7.73201 | 3593 ft | 247 kts | 218° |
| 2026-05-07 18:03 | 37.01542 | -7.74435 | 3446 ft | 237 kts | 218° |
| 2026-05-07 18:04 | 37.00230 | -7.75618 | 3264 ft | 226 kts | 218° |
| 2026-05-07 18:04 | 36.99177 | -7.76971 | 3069 ft | 211 kts | 243° |
| 2026-05-07 18:04 | 36.98831 | -7.78629 | 2911 ft | 189 kts | 272° |
| 2026-05-07 18:04 | 36.99028 | -7.80206 | 2711 ft | 178 kts | 284° |
| 2026-05-07 18:05 | 36.99383 | -7.82110 | 2435 ft | 166 kts | 284° |
| 2026-05-07 18:05 | 36.99522 | -7.83063 | 2170 ft | 163 kts | 283° |
| 2026-05-07 18:05 | 36.99721 | -7.84434 | 1829 ft | 155 kts | 282° |
| 2026-05-07 18:05 | 36.99900 | -7.85689 | 1656 ft | 136 kts | 282° |
| 2026-05-07 18:06 | 37.00065 | -7.86841 | 1469 ft | 137 kts | 283° |
| 2026-05-07 18:06 | 37.00231 | -7.88014 | 1299 ft | 139 kts | 282° |
| 2026-05-07 18:06 | 37.00395 | -7.89174 | 1106 ft | 133 kts | 280° |
| 2026-05-07 18:06 | 37.00559 | -7.90329 | 939 ft | 138 kts | 279° |
| 2026-05-07 18:07 | 37.00729 | -7.91519 | 760 ft | 139 kts | 278° |
| 2026-05-07 18:07 | 37.00904 | -7.92697 | 566 ft | 135 kts | 277° |
| 2026-05-07 18:07 | 37.01055 | -7.93841 | 382 ft | 132 kts | 277° |
| 2026-05-07 18:07 | 37.01218 | -7.94978 | 219 ft | 132 kts | 279° |
| 2026-05-07 18:08 | 37.01378 | -7.96106 | 45 ft | 130 kts | 278° |
| 2026-05-07 18:08 | 37.01521 | -7.97088 | 25 ft | 98 kts | 277° |
| 2026-05-07 18:08 | 37.01614 | -7.97783 | 25 ft | 48 kts | 279° |
| 2026-05-07 18:08 | 37.01713 | -7.98128 | 27 ft | 31 kts | 303° |
| 2026-05-07 18:09 | 37.01818 | -7.98227 | 26 ft | 13 kts | 10° |
| 2026-05-07 18:09 | 37.01847 | -7.98130 | 26 ft | 15 kts | 101° |
| 2026-05-07 18:09 | 37.01825 | -7.97986 | 26 ft | 18 kts | 101° |
| 2026-05-07 18:09 | 37.01803 | -7.97823 | 26 ft | 20 kts | 100° |
| 2026-05-07 18:10 | 37.01783 | -7.97685 | 27 ft | 15 kts | 100° |
| 2026-05-07 18:10 | 37.01772 | -7.97604 | 26 ft | 10 kts | 99° |